This is the latest recevied weather packets stored in our database for station/object K7D3. If no packets are shown the sender has not sent any weather packets the latest 10 day(s).
| Time | Temp. | Humidity | Pressure | Rain* | Wind** | Luminosity | Snow |
|---|---|---|---|---|---|---|---|
| 1777816831 | 7.78° C | 82% | - | 0 mm | 3.58 m/s, 246° | - | - |
| 1777816352 | 7.78° C | 81% | - | 0 mm | 3.13 m/s, 246° | - | - |
| 1777815873 | 8.33° C | 81% | - | 0 mm | 2.24 m/s, 264° | - | - |
| 1777815390 | 8.33° C | 77% | - | 0 mm | 2.24 m/s, 284° | - | - |
| 1777814911 | 8.33° C | 74% | - | 0 mm | 0.45 m/s, 255° | - | - |
| 1777814432 | 8.33° C | 72% | - | 0 mm | 1.34 m/s, 281° | - | - |
| 1777813950 | 8.33° C | 70% | - | 0 mm | 0.89 m/s, 284° | - | - |
| 1777813471 | 8.33° C | 68% | - | 0 mm | 2.24 m/s, 304° | - | - |
| 1777812992 | 8.33° C | 68% | - | 0 mm | 0 m/s | - | - |
| 1777812510 | 8.33° C | 67% | - | 0 mm | 1.34 m/s, 295° | - | - |
| 1777812030 | 7.78° C | 68% | - | 0 mm | 0 m/s | - | - |
| 1777811551 | 7.78° C | 69% | - | 0 mm | 2.68 m/s, 248° | - | - |
| 1777811069 | 7.22° C | 68% | - | 0 mm | 2.68 m/s, 248° | - | - |
| 1777810590 | 7.22° C | 69% | - | 0 mm | 0 m/s | - | - |
| 1777810111 | 7.22° C | 70% | - | 0 mm | 0.45 m/s, 291° | - | - |
| 1777809625 | 6.67° C | 74% | - | 0 mm | 1.79 m/s, 239° | - | - |
| 1777809146 | 6.11° C | 75% | - | 0 mm | 0 m/s | - | - |
| 1777808667 | 6.11° C | 74% | - | 0 mm | 0 m/s | - | - |
| 1777808184 | 5.56° C | 75% | - | 0 mm | 0 m/s | - | - |
| 1777807705 | 5.56° C | 78% | - | 0 mm | 1.79 m/s, 253° | - | - |
| 1777807225 | 5° C | 80% | - | 0 mm | 0 m/s | - | - |
| 1777806740 | 4.44° C | 84% | - | 0 mm | 0 m/s | - | - |
| 1777806260 | 3.89° C | 85% | - | 0 mm | 0.89 m/s, 238° | - | - |
| 1777805781 | 3.33° C | 87% | - | 0 mm | 1.79 m/s, 222° | - | - |
| 1777805298 | 2.78° C | 91% | - | 0 mm | 2.24 m/s, 246° | - | - |
* Rain latest hour (hover to see other rain measurements)
** Current wind speed in m/s (hover to see current wind gust speed)